Terminal Aerodrome Forecast
Issued by NWS Mt. Holly, NJ

Home | Current Version | Previous Version | Text Only | Print | Product List | Glossary On
Versions: 1 2 3 4 5 6 7 8 9 10 11 12 13 14 15 16 17 18 19 20 21 22 23
000
FTUS41 KPHI 251123
TAFPHL
TAF
KPHL 251123Z 2512/2618 08008KT 5SM -RA BR OVC004
      TEMPO 2512/2516 2SM RA BR
     FM251600 07005KT P6SM VCSH OVC007
     FM252100 VRB02KT P6SM OVC010 PROB30 2521/2524 5SM -SHRA
     FM260000 VRB03KT P6SM OVC009 PROB30 2600/2604 5SM -SHRA
     FM260400 31005KT P6SM BKN007
     FM260700 31008KT P6SM BKN012
     FM261000 30009KT P6SM SCT050
     FM261400 30013KT P6SM SCT220=

USA.gov is the U.S. government's official web portal to all federal, state and local government web resources and services.